Nearby METAR Reports

 

EDNY - Friedrichshafen, Germany
Distance from station: O 31km
aktuell: 27.04.2015 22:25
sehr leichter Niederschlag, Showers, geschlossene Wolkendecke
sehr leichter Niederschlag, Showers, geschlossene Wolkendecke
 Wind von NNO
Wind: NNO 11 km/h
Temperatur: 14°C
Taupunkt: 11°C
Luftfeuchte: 82%
Luftdruck: 1000 hPa
Zusammenfassung: sehr leichter Niederschlag, Showers
Clouds: geschlossene Wolkendecke
Visibility: 10 km
Cloud details: Few Clouds 945 m
stark bewölkt 2256 m
geschlossene Wolkendecke 2713 m
2015/04/27 20:25 EDNY 272025Z AUTO 02006KT 330V070 9999 -SHRA FEW031 BKN074 OVC089 14/11 Q1000 RESHRA
LSZR - Rheineck/Altenrh, Switzerland
Distance from station: SO 42km
aktuell: 27.04.2015 22:20
sehr leichter Niederschlag, Showers, Nearby thunderstorm, stark bewölkt
sehr leichter Niederschlag, Showers, Nearby thunderstorm, stark bewölkt
 Wind von WNW
Wind: WNW 13 km/h
Temperatur: 16°C
Taupunkt: 13°C
Luftfeuchte: 83%
Luftdruck: 1000 hPa
Zusammenfassung: sehr leichter Niederschlag, Showers, Nearby thunderstorm
Clouds: stark bewölkt
Visibility: 10 km
Cloud details: Few Clouds 579 m
teilweise bewölkt 823 m
stark bewölkt 1097 m
2015/04/27 20:20 LSZR 272020Z AUTO 29007KT 220V360 9999 -SHRA VCTS FEW019 SCT027 BKN036CB 16/13 Q1000 RETSRA
LSZH - Zurich-Kloten (a, Switzerland
Distance from station: WSW 49km
aktuell: 27.04.2015 22:20
Thunderstorm, stark bewölkt
Thunderstorm, stark bewölkt
 Wind von NNW
Wind: NNW 11 km/h
Temperatur: 15°C
Taupunkt: 10°C
Luftfeuchte: 72%
Luftdruck: 1002 hPa
Zusammenfassung: Thunderstorm
Clouds: stark bewölkt
Visibility: 10 km
Cloud details: Few Clouds 671 m
Few Clouds 1067 m
stark bewölkt 1463 m
2015/04/27 20:20 LSZH 272020Z 33006KT 9999 TS FEW022TCU FEW035CB BKN048 15/10 Q1002 TEMPO TSRA
 
EDTD - Donaueschingen, Germany
Distance from station: NW 53km
aktuell: 30.04.2014 18:20
NOT Current
sehr leichter Niederschlag, geschlossene Wolkendecke
sehr leichter Niederschlag, geschlossene Wolkendecke
 Wind von SSW
Wind: SSW 9 km/h
Temperatur: 10°C
gefühlte Temperatur: 9°C
Taupunkt: 10°C
Luftfeuchte: 100%
Luftdruck: 1011 hPa
Zusammenfassung: sehr leichter Niederschlag
Clouds: geschlossene Wolkendecke
Visibility: 9 km
Cloud details: stark bewölkt 213 m
geschlossene Wolkendecke 335 m
2014/04/30 16:20 EDTD 301620Z 20005KT 9000 -RA BKN007 OVC011 10/10 Q1011 LAST ?
ETGZ - Messstetten, Germany
Distance from station: N 54km
aktuell: 30.09.2013 14:20
NOT Current
geschlossene Wolkendecke
geschlossene Wolkendecke
 Wind von varies
Wind: varies 4 km/h
Temperatur: 8°C
Taupunkt: 7°C
Luftfeuchte: 93%
Luftdruck: 1007 hPa
Clouds: geschlossene Wolkendecke
Visibility: 10 km
Cloud details: geschlossene Wolkendecke 213 m
2013/09/30 12:20 ETGZ 301220Z VRB02KT 9999 OVC007 08/07 Q1007 GRN
LOIH - Hohenems-Dornbir, Austria
Distance from station: SO 57km
aktuell: 27.04.2015 19:00
NOT Current
stark bewölkt
stark bewölkt
 Wind von varies
Wind: varies 2 km/h
Temperatur: 23°C
Taupunkt: 13°C
Luftfeuchte: 53%
Luftdruck: 997 hPa
Clouds: stark bewölkt
Cloud details: Few Clouds 1219 m
teilweise bewölkt 2134 m
stark bewölkt 9144 m
2015/04/27 17:00 LOIH 271700Z VRB01KT 35KM FEW040CB SCT070SC BKN300CI 23/13 Q0997 RMK BKN
 
ETHL - Laupheim (ger-Ar, Germany
Distance from station: NO 84km
aktuell: 27.04.2015 22:20
sehr leichter Niederschlag, stark bewölkt
sehr leichter Niederschlag, stark bewölkt
 Wind von N
Wind: N 13 km/h
Temperatur: 13°C
Taupunkt: 11°C
Luftfeuchte: 88%
Luftdruck: 1001 hPa
Zusammenfassung: sehr leichter Niederschlag
Clouds: stark bewölkt
Visibility: 10 km
Cloud details: teilweise bewölkt 640 m
stark bewölkt 1829 m
2015/04/27 20:20 ETHL 272020Z 36007KT 9999 -RA SCT021 BKN060 13/11 Q1001 RETS BLU
EDJA - Memmingen Allgau, Germany
Distance from station: ONO 90km
aktuell: 27.04.2015 21:20
NOT Current
sehr leichter Niederschlag, Nearby thunderstorm, stark bewölkt
sehr leichter Niederschlag, Nearby thunderstorm, stark bewölkt
 Wind von NO
Wind: NO 15 km/h
Temperatur: 12°C
Taupunkt: 10°C
Luftfeuchte: 88%
Luftdruck: 1000 hPa
Zusammenfassung: sehr leichter Niederschlag, Nearby thunderstorm
Clouds: stark bewölkt
Visibility: 10 km
Cloud details: stark bewölkt 1676 m
stark bewölkt 2164 m
2015/04/27 19:20 EDJA 271920Z 05008KT 9999 -RA VCTS BKN055 BKN071 12/10 Q1000
LSME - Emmen, Switzerland
Distance from station: SW 90km
aktuell: 27.04.2015 21:50
stark bewölkt
stark bewölkt
 Wind von W
Wind: W 9 km/h
Temperatur: 16°C
Taupunkt: 11°C
Luftfeuchte: 72%
Luftdruck: 1001 hPa
Clouds: stark bewölkt
Visibility: 16 miles
Cloud details: stark bewölkt 884 m
stark bewölkt 1097 m
stark bewölkt 1646 m
2015/04/27 19:50 LSME 271950Z AUTO 27005KT 9999NDV BKN029 BKN036 BKN054 16/11 Q1001 RMK WHT
 
LSZC - Buochs, Switzerland
Distance from station: SSW 98km
aktuell: 27.04.2015 22:20
sehr leichter Niederschlag, Showers, Nearby thunderstorm, stark bewölkt
sehr leichter Niederschlag, Showers, Nearby thunderstorm, stark bewölkt
 Wind von NW
Wind: NW 15 km/h
Zusammenfassung: sehr leichter Niederschlag, Showers, Nearby thunderstorm
Clouds: stark bewölkt
Visibility: 10 km
Cloud details: stark bewölkt 853 m
2015/04/27 20:20 LSZC 272020Z AUTO 31008KT 270V340 9999 -SHRA VCTS BKN028 SCT///CB 15/12 Q1001